createdAt,value
2018-11-21T01:08:49.589Z,2.70
2018-11-21T01:11:37.714Z,2.70
2018-11-21T01:14:23.458Z,2.70
2018-11-21T01:20:09.262Z,2.70
2018-11-21T01:22:56.313Z,2.70
2018-11-21T01:25:43.208Z,2.60
2018-11-21T01:28:29.600Z,2.60
2018-11-21T01:31:16.401Z,2.50
2018-11-21T01:34:03.260Z,2.50
2018-11-21T01:36:50.689Z,2.50
2018-11-21T01:39:37.387Z,2.50
2018-11-21T01:42:24.202Z,2.50
2018-11-21T01:48:00.202Z,2.40
2018-11-21T01:53:36.712Z,2.40
2018-11-21T01:56:23.649Z,2.50
2018-11-21T01:59:10.771Z,2.60
2018-11-21T02:01:57.781Z,2.60
2018-11-21T02:04:44.836Z,2.70
2018-11-21T02:07:31.929Z,2.70
2018-11-21T02:10:19.146Z,2.80
2018-11-21T02:13:05.865Z,2.80
2018-11-21T02:15:52.782Z,2.80
2018-11-21T02:18:39.444Z,2.80
2018-11-21T02:21:26.617Z,2.80
2018-11-21T02:24:13.164Z,2.80
2018-11-21T02:27:00.269Z,2.80
2018-11-21T02:29:47.056Z,2.80
2018-11-21T02:32:33.719Z,2.80
2018-11-21T02:35:20.954Z,2.80
2018-11-21T02:38:08.052Z,2.80
2018-11-21T02:40:54.369Z,2.80
2018-11-21T02:43:40.984Z,2.90
2018-11-21T02:46:27.541Z,2.90
2018-11-21T02:54:57.267Z,3.10
2018-11-21T02:57:44.324Z,3.10
2018-11-21T03:00:31.506Z,3.10
2018-11-21T03:03:17.905Z,3.10
2018-11-21T03:06:05.017Z,3.10
2018-11-21T03:08:51.480Z,3.20
2018-11-21T03:11:38.457Z,3.20
2018-11-21T03:14:24.844Z,3.20
2018-11-21T03:17:11.527Z,3.20
2018-11-21T03:19:58.440Z,3.30
2018-11-21T03:22:45.858Z,3.30
2018-11-21T03:25:32.941Z,3.30
2018-11-21T03:28:20.631Z,3.30
2018-11-21T03:33:57.772Z,3.30
2018-11-21T03:39:34.060Z,3.40
2018-11-21T03:42:21.236Z,3.40
2018-11-21T03:45:10.167Z,3.40
2018-11-21T03:47:57.325Z,3.40
2018-11-21T03:50:43.816Z,3.50
2018-11-21T03:53:31.030Z,3.40
2018-11-21T03:56:17.575Z,3.50
2018-11-21T03:59:04.545Z,3.40
2018-11-21T04:01:51.441Z,3.40
2018-11-21T04:04:38.798Z,3.40
2018-11-21T04:07:25.936Z,3.40
2018-11-21T04:10:12.496Z,3.50
2018-11-21T04:12:59.568Z,3.50
2018-11-21T04:15:46.304Z,3.50
2018-11-21T04:18:33.532Z,3.50
2018-11-21T04:21:20.131Z,3.50
2018-11-21T04:24:06.732Z,3.50
2018-11-21T04:26:53.726Z,3.50
2018-11-21T04:29:40.799Z,3.60
2018-11-21T04:32:28.093Z,3.50
2018-11-21T04:35:15.563Z,3.50
2018-11-21T04:38:02.780Z,3.60
2018-11-21T04:40:50.274Z,3.60
2018-11-21T04:43:37.357Z,3.60
2018-11-21T04:46:24.582Z,3.60
2018-11-21T04:49:11.968Z,3.60
2018-11-21T04:51:59.379Z,3.60
2018-11-21T04:54:46.250Z,3.60
2018-11-21T04:57:33.173Z,3.60
2018-11-21T05:00:19.878Z,3.60
2018-11-21T05:03:06.403Z,3.60
2018-11-21T05:05:53.248Z,3.60
2018-11-21T05:08:40.714Z,3.60
2018-11-21T05:11:28.023Z,3.60
2018-11-21T05:14:15.062Z,3.60
2018-11-21T05:17:02.218Z,3.60
2018-11-21T05:19:48.792Z,3.60
2018-11-21T05:22:36.248Z,3.60
2018-11-21T05:25:24.152Z,3.60
2018-11-21T05:28:11.020Z,3.60
2018-11-21T05:30:57.773Z,3.60
2018-11-21T05:36:30.487Z,3.60
2018-11-21T05:39:17.819Z,3.60
2018-11-21T05:42:04.179Z,3.60
2018-11-21T05:44:51.498Z,3.60
2018-11-21T05:47:38.548Z,3.60
2018-11-21T05:50:25.777Z,3.60
2018-11-21T05:53:12.626Z,3.60
2018-11-21T05:55:59.407Z,3.60
2018-11-21T05:58:46.217Z,3.60
2018-11-21T06:01:33.275Z,3.60
2018-11-21T06:04:20.218Z,3.60
2018-11-21T06:07:07.187Z,3.60
2018-11-21T06:09:54.191Z,3.50
2018-11-21T06:12:41.079Z,3.50
2018-11-21T06:15:28.133Z,3.50
2018-11-21T06:18:15.215Z,3.40
2018-11-21T06:21:02.441Z,3.30
2018-11-21T06:23:49.377Z,3.30
2018-11-21T06:26:36.722Z,3.20
2018-11-21T06:29:23.720Z,3.10
2018-11-21T06:32:10.467Z,3.10
2018-11-21T06:34:57.350Z,3.00
2018-11-21T06:37:44.289Z,3.00
2018-11-21T06:40:30.956Z,2.90
2018-11-21T06:43:18.159Z,2.90
2018-11-21T06:46:04.879Z,2.90
2018-11-21T06:48:52.522Z,2.90
2018-11-21T06:51:39.351Z,3.00
2018-11-21T06:54:26.505Z,3.00
2018-11-21T06:57:13.539Z,3.00
2018-11-21T07:00:00.799Z,3.10
2018-11-21T07:02:47.668Z,3.10
2018-11-21T07:05:34.560Z,3.20
2018-11-21T07:08:21.720Z,3.20
2018-11-21T07:11:08.925Z,3.20
2018-11-21T07:13:55.316Z,3.20
2018-11-21T07:16:42.734Z,3.20
2018-11-21T07:19:29.852Z,3.20
2018-11-21T07:22:16.789Z,3.20
2018-11-21T07:25:03.871Z,3.20
2018-11-21T07:27:52.076Z,3.20
2018-11-21T07:30:38.818Z,3.20
2018-11-21T07:33:25.873Z,3.20
2018-11-21T07:39:02.584Z,3.20
2018-11-21T07:41:49.361Z,3.30
2018-11-21T07:44:36.299Z,3.30
2018-11-21T07:47:26.579Z,3.30
2018-11-21T07:50:10.372Z,3.30
2018-11-21T07:52:56.947Z,3.30
2018-11-21T07:55:44.313Z,3.30
2018-11-21T07:58:31.529Z,3.30
2018-11-21T08:01:18.415Z,3.40
2018-11-21T08:04:05.056Z,3.40
2018-11-21T08:06:51.943Z,3.40
2018-11-21T08:09:38.853Z,3.40
2018-11-21T08:12:25.255Z,3.50
2018-11-21T08:15:12.144Z,3.50
2018-11-21T08:17:59.280Z,3.50
2018-11-21T08:20:45.932Z,3.50
2018-11-21T08:23:32.627Z,3.60
2018-11-21T08:26:19.105Z,3.60
2018-11-21T08:29:06.157Z,3.60
2018-11-21T08:31:52.777Z,3.70
2018-11-21T08:34:39.647Z,3.70
2018-11-21T08:37:26.795Z,3.70
2018-11-21T08:40:13.847Z,3.80
2018-11-21T08:43:00.632Z,3.80
2018-11-21T08:45:47.809Z,3.90
2018-11-21T08:48:34.206Z,4.00
2018-11-21T08:51:20.758Z,4.00
2018-11-21T08:56:59.271Z,4.00
2018-11-21T08:59:46.593Z,4.00
2018-11-21T09:02:33.056Z,4.00
2018-11-21T09:05:19.887Z,4.10
2018-11-21T09:08:07.893Z,4.10
2018-11-21T09:10:54.964Z,4.20
2018-11-21T09:13:41.985Z,4.30
2018-11-21T09:16:28.826Z,4.30
2018-11-21T09:19:15.874Z,4.30
2018-11-21T09:24:52.789Z,4.30
2018-11-21T09:30:29.071Z,4.40
2018-11-21T09:33:16.012Z,4.40
2018-11-21T09:36:09.685Z,4.30
2018-11-21T09:38:52.669Z,4.40
2018-11-21T09:41:39.869Z,4.40
2018-11-21T09:44:26.948Z,4.50
2018-11-21T09:47:14.403Z,4.50
2018-11-21T09:50:01.171Z,4.60
2018-11-21T09:52:50.310Z,4.50
2018-11-21T09:55:35.949Z,4.50
2018-11-21T09:58:21.994Z,4.60
2018-11-21T10:01:09.163Z,4.60
2018-11-21T10:03:58.881Z,4.60
2018-11-21T10:06:42.677Z,4.70
2018-11-21T10:09:29.112Z,4.70
2018-11-21T10:12:15.957Z,4.70
2018-11-21T10:15:03.169Z,4.80
2018-11-21T10:17:49.562Z,4.90
2018-11-21T10:20:36.336Z,5.00
2018-11-21T10:23:23.276Z,5.00
2018-11-21T10:26:10.416Z,5.10
2018-11-21T10:28:57.203Z,5.10
2018-11-21T10:31:44.479Z,5.10
2018-11-21T10:34:31.782Z,5.20
2018-11-21T10:37:18.177Z,5.10
2018-11-21T10:40:05.270Z,5.20
2018-11-21T10:42:52.194Z,5.30
2018-11-21T10:45:39.418Z,5.40
2018-11-21T10:48:26.713Z,5.50
2018-11-21T10:51:14.449Z,5.50
2018-11-21T10:54:00.595Z,5.60
2018-11-21T10:59:37.037Z,5.50
2018-11-21T11:02:23.754Z,5.40
2018-11-21T11:05:19.609Z,5.30
2018-11-21T11:48:01.118Z,5.90
2018-11-21T11:50:47.520Z,6.00
2018-11-21T11:53:34.532Z,6.00
2018-11-21T11:56:21.165Z,6.00
2018-11-21T11:59:08.023Z,5.90
2018-11-21T12:01:54.872Z,5.90
2018-11-21T12:04:41.656Z,6.00
2018-11-21T12:13:00.608Z,6.30
2018-11-21T12:15:47.791Z,6.20
2018-11-21T12:18:34.476Z,6.20
2018-11-21T12:21:21.297Z,6.30
2018-11-21T12:26:54.160Z,6.20
2018-11-21T12:29:42.059Z,6.20
2018-11-21T12:32:28.216Z,6.20
2018-11-21T12:35:14.714Z,6.30
2018-11-21T12:38:01.906Z,6.40
2018-11-21T12:43:34.668Z,6.30
2018-11-21T12:46:21.888Z,6.50
2018-11-21T12:49:09.585Z,6.50
2018-11-21T12:51:56.691Z,6.50
2018-11-21T12:54:43.408Z,6.50
2018-11-21T12:57:30.062Z,6.50
2018-11-21T13:00:17.145Z,6.40
2018-11-21T13:03:04.147Z,6.40
2018-11-21T13:05:51.145Z,6.40
2018-11-21T13:08:38.384Z,6.40
2018-11-21T13:11:25.692Z,6.40
2018-11-21T13:14:12.541Z,6.40
2018-11-21T13:16:59.707Z,6.40
2018-11-21T13:23:01.678Z,6.40
2018-11-21T13:35:18.668Z,6.30
2018-11-21T13:41:31.606Z,6.30
2018-11-21T13:56:41.113Z,6.20
2018-11-21T13:59:29.561Z,6.20
2018-11-21T14:02:18.010Z,6.10
2018-11-21T14:07:52.879Z,6.00
2018-11-21T14:10:41.310Z,6.00
2018-11-21T14:13:29.741Z,6.00
2018-11-21T14:43:44.037Z,6.00
2018-11-21T14:46:32.593Z,6.00
2018-11-21T14:49:21.061Z,6.00
2018-11-21T16:05:28.670Z,5.70
2018-11-21T16:08:17.121Z,5.70
2018-11-21T16:11:05.618Z,5.70
2018-11-21T17:11:53.789Z,5.20
2018-11-21T17:14:42.602Z,5.30
2018-11-21T17:54:13.372Z,5.00
2018-11-21T17:57:01.796Z,5.00
2018-11-21T17:59:50.529Z,5.00
2018-11-21T18:14:40.508Z,4.90
2018-11-21T18:17:28.944Z,4.90
2018-11-21T18:20:17.941Z,4.90
2018-11-21T20:41:38.133Z,4.50
2018-11-21T20:44:26.573Z,4.50
2018-11-21T20:47:15.179Z,4.50
2018-11-21T22:28:48.076Z,4.00
2018-11-21T22:31:34.401Z,4.00
2018-11-21T22:34:24.519Z,4.10
2018-11-21T22:37:08.514Z,4.00
2018-11-21T22:39:55.635Z,4.00
2018-11-21T22:42:42.541Z,4.00
2018-11-21T22:45:29.644Z,3.90
2018-11-21T22:48:16.844Z,3.90
2018-11-21T22:51:03.869Z,3.90
2018-11-21T22:53:50.835Z,4.00
2018-11-21T22:56:37.761Z,3.90
2018-11-21T22:59:24.758Z,4.00
2018-11-21T23:02:11.695Z,4.00
2018-11-21T23:04:59.060Z,3.90
2018-11-21T23:07:45.654Z,4.00
2018-11-21T23:10:32.816Z,4.00
2018-11-21T23:13:19.727Z,4.00
2018-11-21T23:16:06.859Z,4.00
2018-11-21T23:18:53.607Z,4.10
2018-11-21T23:21:40.825Z,4.10
2018-11-21T23:24:26.187Z,4.50
